createdAt,value
2022-12-17T00:00:10.402Z,-2.99
2022-12-17T00:02:31.828Z,-2.99
2022-12-17T00:04:53.306Z,-2.98
2022-12-17T00:07:14.995Z,-2.99
2022-12-17T00:09:36.201Z,-3.00
2022-12-17T00:11:57.293Z,-2.99
2022-12-17T00:14:18.520Z,-3.01
2022-12-17T00:16:39.898Z,-3.04
2022-12-17T00:19:01.169Z,-3.04
2022-12-17T00:21:25.392Z,-3.02
2022-12-17T00:23:46.644Z,-3.00
2022-12-17T00:26:12.123Z,-3.00
2022-12-17T00:28:33.804Z,-3.01
2022-12-17T00:30:54.992Z,-2.99
2022-12-17T00:33:16.222Z,-3.01
2022-12-17T00:35:37.472Z,-3.01
2022-12-17T00:37:58.794Z,-3.04
2022-12-17T00:40:19.995Z,-3.06
2022-12-17T00:42:41.316Z,-3.03
2022-12-17T00:45:02.296Z,-3.05
2022-12-17T00:47:24.957Z,-3.05
2022-12-17T00:49:45.988Z,-3.08
2022-12-17T00:52:06.972Z,-3.08
2022-12-17T00:54:28.208Z,-3.09
2022-12-17T00:56:49.352Z,-3.10
2022-12-17T00:59:13.395Z,-3.09
2022-12-17T01:01:34.835Z,-3.10
2022-12-17T01:03:56.096Z,-3.11
2022-12-17T01:06:22.209Z,-3.13
2022-12-17T01:08:43.126Z,-3.13
2022-12-17T01:11:04.185Z,-3.16
2022-12-17T01:13:25.121Z,-3.13
2022-12-17T01:15:46.186Z,-3.15
2022-12-17T01:18:07.235Z,-3.15
2022-12-17T01:20:28.812Z,-3.16
2022-12-17T01:22:49.876Z,-3.16
2022-12-17T01:25:11.188Z,-3.12
2022-12-17T01:27:32.390Z,-3.12
2022-12-17T01:29:53.350Z,-3.14
2022-12-17T01:32:14.585Z,-3.15
2022-12-17T01:34:35.834Z,-3.21
2022-12-17T01:36:56.777Z,-3.21
2022-12-17T01:39:17.677Z,-3.23
2022-12-17T01:41:38.572Z,-3.24
2022-12-17T01:43:59.938Z,-3.25
2022-12-17T01:46:21.167Z,-3.24
2022-12-17T01:48:57.125Z,-3.23
2022-12-17T01:51:32.158Z,-3.23
2022-12-17T01:54:00.561Z,-3.22
2022-12-17T01:56:23.227Z,-3.23
2022-12-17T01:58:44.132Z,-3.26
2022-12-17T02:01:05.585Z,-3.23
2022-12-17T02:03:38.127Z,-3.23
2022-12-17T02:06:20.138Z,-3.25
2022-12-17T02:08:41.095Z,-3.25
2022-12-17T02:11:30.826Z,-3.26
2022-12-17T02:14:00.586Z,-3.30
2022-12-17T02:16:49.459Z,-3.31
2022-12-17T02:19:18.494Z,-3.29
2022-12-17T02:21:41.830Z,-3.32
2022-12-17T02:24:15.103Z,-3.31
2022-12-17T02:27:02.912Z,-3.29
2022-12-17T02:29:26.629Z,-3.27
2022-12-17T02:31:48.582Z,-3.27
2022-12-17T02:34:10.151Z,-3.26
2022-12-17T02:36:31.388Z,-3.23
2022-12-17T02:39:00.548Z,-3.23
2022-12-17T02:41:25.111Z,-3.25
2022-12-17T02:43:47.774Z,-3.25
2022-12-17T02:46:09.257Z,-3.23
2022-12-17T02:48:31.345Z,-3.23
2022-12-17T02:50:52.772Z,-3.28
2022-12-17T02:53:17.559Z,-3.30
2022-12-17T02:55:38.490Z,-3.34
2022-12-17T02:57:59.585Z,-3.33
2022-12-17T03:00:20.528Z,-3.35
2022-12-17T03:02:41.648Z,-3.38
2022-12-17T03:05:15.212Z,-3.36
2022-12-17T03:07:44.289Z,-3.37
2022-12-17T03:10:05.288Z,-3.37
2022-12-17T03:12:26.370Z,-3.35
2022-12-17T03:14:47.505Z,-3.34
2022-12-17T03:17:08.374Z,-3.41
2022-12-17T03:19:29.703Z,-3.38
2022-12-17T03:21:50.724Z,-3.38
2022-12-17T03:24:12.108Z,-3.40
2022-12-17T03:26:32.942Z,-3.43
2022-12-17T03:28:53.735Z,-3.51
2022-12-17T03:31:18.363Z,-3.60
2022-12-17T03:33:39.488Z,-3.65
2022-12-17T03:36:00.410Z,-3.66
2022-12-17T03:38:26.948Z,-3.70
2022-12-17T03:40:48.033Z,-3.69
2022-12-17T03:43:09.434Z,-3.73
2022-12-17T03:45:31.284Z,-3.73
2022-12-17T03:47:52.180Z,-3.71
2022-12-17T03:50:13.423Z,-3.71
2022-12-17T03:52:36.001Z,-3.70
2022-12-17T03:54:57.125Z,-3.69
2022-12-17T03:57:18.089Z,-3.69
2022-12-17T03:59:39.346Z,-3.66
2022-12-17T04:02:00.355Z,-3.65
2022-12-17T04:04:21.545Z,-3.64
2022-12-17T04:06:42.779Z,-3.64
2022-12-17T04:09:03.583Z,-3.61
2022-12-17T04:11:25.019Z,-3.59
2022-12-17T04:13:46.201Z,-3.61
2022-12-17T04:16:07.672Z,-3.58
2022-12-17T04:18:28.785Z,-3.61
2022-12-17T04:20:49.944Z,-3.63
2022-12-17T04:23:11.029Z,-3.65
2022-12-17T04:25:32.295Z,-3.66
2022-12-17T04:27:53.171Z,-3.67
2022-12-17T04:30:14.628Z,-3.70
2022-12-17T04:32:35.796Z,-3.72
2022-12-17T04:34:57.216Z,-3.74
2022-12-17T04:37:18.292Z,-3.74
2022-12-17T04:39:39.612Z,-3.75
2022-12-17T04:42:00.776Z,-3.76
2022-12-17T04:44:22.276Z,-3.76
2022-12-17T04:46:43.360Z,-3.78
2022-12-17T04:49:04.747Z,-3.78
2022-12-17T04:51:25.979Z,-3.79
2022-12-17T04:54:07.073Z,-3.82
2022-12-17T04:56:28.012Z,-3.83
2022-12-17T04:58:49.140Z,-3.84
2022-12-17T05:01:11.190Z,-3.89
2022-12-17T05:03:35.064Z,-3.91
2022-12-17T05:05:56.774Z,-3.90
2022-12-17T05:08:18.092Z,-3.89
2022-12-17T05:10:39.452Z,-3.90
2022-12-17T05:13:00.501Z,-3.91
2022-12-17T05:15:21.855Z,-3.89
2022-12-17T05:17:42.854Z,-3.89
2022-12-17T05:20:04.435Z,-3.88
2022-12-17T05:22:25.788Z,-3.88
2022-12-17T05:24:46.920Z,-3.88
2022-12-17T05:27:07.823Z,-3.88
2022-12-17T05:29:29.130Z,-3.86
2022-12-17T05:31:50.422Z,-3.86
2022-12-17T05:34:11.208Z,-3.85
2022-12-17T05:36:32.357Z,-3.86
2022-12-17T05:38:53.271Z,-3.80
2022-12-17T05:41:16.657Z,-3.78
2022-12-17T05:43:38.077Z,-3.73
2022-12-17T05:46:00.668Z,-3.72
2022-12-17T05:48:21.614Z,-3.74
2022-12-17T05:50:42.502Z,-3.77
2022-12-17T05:53:03.842Z,-3.83
2022-12-17T05:55:25.380Z,-3.78
2022-12-17T05:57:50.486Z,-3.73
2022-12-17T06:00:14.089Z,-3.74
2022-12-17T06:02:35.143Z,-3.76
2022-12-17T06:05:01.969Z,-3.74
2022-12-17T06:07:25.006Z,-3.73
2022-12-17T06:09:46.103Z,-3.69
2022-12-17T06:12:07.125Z,-3.67
2022-12-17T06:14:28.392Z,-3.66
2022-12-17T06:16:49.362Z,-3.61
2022-12-17T06:19:10.645Z,-3.58
2022-12-17T06:21:31.571Z,-3.53
2022-12-17T06:23:52.588Z,-3.51
2022-12-17T06:26:15.088Z,-3.44
2022-12-17T06:28:36.266Z,-3.41
2022-12-17T06:30:57.478Z,-3.35
2022-12-17T06:33:24.120Z,-3.30
2022-12-17T06:35:46.351Z,-3.26
2022-12-17T06:38:07.400Z,-3.24
2022-12-17T06:40:29.123Z,-3.22
2022-12-17T06:42:50.039Z,-3.16
2022-12-17T06:45:11.062Z,-3.14
2022-12-17T06:47:32.068Z,-3.10
2022-12-17T06:49:57.966Z,-3.11
2022-12-17T06:52:22.206Z,-3.10
2022-12-17T06:54:43.498Z,-3.03
2022-12-17T06:57:04.433Z,-2.98
2022-12-17T06:59:25.827Z,-2.99
2022-12-17T07:01:48.050Z,-2.98
2022-12-17T07:04:09.399Z,-2.98
2022-12-17T07:09:45.014Z,-3.04
2022-12-17T07:12:06.077Z,-3.05
2022-12-17T07:14:26.997Z,-3.04
2022-12-17T07:16:48.044Z,-3.07
2022-12-17T07:19:09.296Z,-3.05
2022-12-17T07:21:30.201Z,-3.01
2022-12-17T07:23:51.535Z,-2.94
2022-12-17T07:26:12.812Z,-2.91
2022-12-17T07:28:34.119Z,-2.87
2022-12-17T07:30:55.931Z,-2.81
2022-12-17T07:33:21.113Z,-2.81
2022-12-17T07:35:42.454Z,-2.78
2022-12-17T07:38:03.393Z,-2.78
2022-12-17T07:40:25.200Z,-2.82
2022-12-17T07:42:46.201Z,-2.82
2022-12-17T07:45:07.204Z,-2.82
2022-12-17T07:47:28.125Z,-2.79
2022-12-17T07:49:49.065Z,-2.78
2022-12-17T07:52:10.352Z,-2.82
2022-12-17T07:54:31.475Z,-2.69
2022-12-17T07:56:52.603Z,-2.70
2022-12-17T07:59:13.906Z,-2.61
2022-12-17T08:01:35.548Z,-2.55
2022-12-17T08:03:56.982Z,-2.54
2022-12-17T08:06:18.535Z,-2.52
2022-12-17T08:08:39.424Z,-2.47
2022-12-17T08:11:07.544Z,-2.40
2022-12-17T08:13:28.440Z,-2.34
2022-12-17T08:15:50.980Z,-2.31
2022-12-17T08:18:22.925Z,-2.26
2022-12-17T08:20:47.493Z,-2.21
2022-12-17T08:23:08.565Z,-2.17
2022-12-17T08:25:30.135Z,-2.14
2022-12-17T08:27:51.057Z,-2.09
2022-12-17T08:30:12.104Z,-2.02
2022-12-17T08:32:33.569Z,-1.97
2022-12-17T08:34:54.834Z,-1.98
2022-12-17T08:37:15.924Z,-1.85
2022-12-17T08:39:36.828Z,-1.82
2022-12-17T08:42:03.934Z,-1.82
2022-12-17T08:44:25.735Z,-1.86
2022-12-17T08:47:00.614Z,-1.87
2022-12-17T08:49:22.142Z,-1.84
2022-12-17T08:51:44.333Z,-1.90
2022-12-17T08:54:05.603Z,-1.91
2022-12-17T08:56:26.617Z,-1.86
2022-12-17T08:58:47.859Z,-1.86
2022-12-17T09:01:10.798Z,-1.88
2022-12-17T09:03:31.903Z,-1.92
2022-12-17T09:05:53.314Z,-1.97
2022-12-17T09:08:22.538Z,-1.98
2022-12-17T09:10:43.541Z,-1.98
2022-12-17T09:13:05.296Z,-1.99
2022-12-17T09:15:26.908Z,-2.00
2022-12-17T09:17:48.073Z,-2.00
2022-12-17T09:20:09.253Z,-1.98
2022-12-17T09:22:30.366Z,-2.02
2022-12-17T09:24:51.598Z,-2.01
2022-12-17T09:27:12.720Z,-2.00
2022-12-17T09:29:33.737Z,-1.95
2022-12-17T09:31:54.931Z,-1.90
2022-12-17T09:34:16.077Z,-1.87
2022-12-17T09:36:37.282Z,-1.91
2022-12-17T09:38:58.465Z,-1.95
2022-12-17T09:41:46.412Z,-1.97
2022-12-17T09:44:21.765Z,-1.92
2022-12-17T09:46:45.831Z,-1.96
2022-12-17T09:49:12.850Z,-1.98
2022-12-17T09:51:45.976Z,-2.08
2022-12-17T09:54:12.134Z,-2.18
2022-12-17T09:56:34.438Z,-2.27
2022-12-17T09:58:58.129Z,-2.32
2022-12-17T10:01:23.634Z,-2.41
2022-12-17T10:03:45.871Z,-2.37
2022-12-17T10:06:08.475Z,-2.40
2022-12-17T10:08:37.084Z,-2.40
2022-12-17T10:11:03.657Z,-2.37
2022-12-17T10:13:36.170Z,-2.38
2022-12-17T10:16:00.447Z,-2.35
2022-12-17T10:18:45.985Z,-2.45
2022-12-17T10:21:15.541Z,-2.53
2022-12-17T10:23:50.620Z,-2.57
2022-12-17T10:26:14.131Z,-2.61
2022-12-17T10:28:41.321Z,-2.66
2022-12-17T10:31:02.414Z,-2.69
2022-12-17T10:33:40.039Z,-2.73
2022-12-17T10:36:01.354Z,-2.74
2022-12-17T10:38:46.637Z,-2.78
2022-12-17T10:41:07.613Z,-2.76
2022-12-17T10:43:53.850Z,-2.78
2022-12-17T10:46:16.368Z,-2.81
2022-12-17T10:48:50.345Z,-2.80
2022-12-17T10:51:12.524Z,-2.81
2022-12-17T10:53:52.262Z,-2.92
2022-12-17T10:56:16.368Z,-2.77
2022-12-17T10:58:48.055Z,-2.75
2022-12-17T11:01:17.877Z,-2.81
2022-12-17T11:03:44.795Z,-2.81
2022-12-17T11:06:10.501Z,-2.82
2022-12-17T11:08:34.898Z,-2.89
2022-12-17T11:11:02.007Z,-2.95
2022-12-17T11:13:29.458Z,-3.01
2022-12-17T11:16:06.088Z,-3.00
2022-12-17T11:18:36.434Z,-3.02
2022-12-17T11:21:14.271Z,-3.07
2022-12-17T11:23:38.406Z,-3.12
2022-12-17T11:26:24.003Z,-3.13
2022-12-17T11:28:51.015Z,-3.14
2022-12-17T11:31:21.781Z,-3.16
2022-12-17T11:33:56.267Z,-3.19
2022-12-17T11:36:51.496Z,-3.20
2022-12-17T11:39:24.604Z,-3.27
2022-12-17T11:41:57.809Z,-3.32
2022-12-17T11:44:49.599Z,-3.37
2022-12-17T11:47:13.586Z,-3.41
2022-12-17T11:49:56.429Z,-3.45
2022-12-17T11:52:29.329Z,-3.45
2022-12-17T11:55:02.403Z,-3.49
2022-12-17T11:57:42.905Z,-3.52
2022-12-17T12:00:04.500Z,-3.50
2022-12-17T12:03:07.788Z,-3.49
2022-12-17T12:05:34.845Z,-3.49
2022-12-17T12:08:21.233Z,-3.51
2022-12-17T12:11:10.349Z,-3.51
2022-12-17T12:13:58.572Z,-3.53
2022-12-17T12:16:42.066Z,-3.49
2022-12-17T12:19:13.545Z,-3.44
2022-12-17T12:21:57.993Z,-3.48
2022-12-17T12:24:40.877Z,-3.48
2022-12-17T12:27:39.140Z,-3.49
2022-12-17T12:30:08.989Z,-3.55
2022-12-17T12:32:47.192Z,-3.57
2022-12-17T12:35:11.253Z,-3.57
2022-12-17T12:37:35.908Z,-3.61
2022-12-17T12:40:02.610Z,-3.64
2022-12-17T12:42:50.433Z,-3.61
2022-12-17T12:45:46.683Z,-3.61
2022-12-17T12:48:43.307Z,-3.64
2022-12-17T12:51:11.831Z,-3.66
2022-12-17T12:53:33.938Z,-3.66
2022-12-17T12:56:01.724Z,-3.66
2022-12-17T12:58:50.807Z,-3.65
2022-12-17T13:01:15.988Z,-3.68
2022-12-17T13:03:55.491Z,-3.68
2022-12-17T13:05:58.340Z,-3.67
2022-12-17T13:08:25.365Z,-3.73
2022-12-17T13:10:30.706Z,-3.67
2022-12-17T13:12:49.557Z,-3.66
2022-12-17T13:15:07.280Z,-3.67
2022-12-17T13:17:18.803Z,-3.66
2022-12-17T13:19:36.706Z,-3.69
2022-12-17T13:21:39.291Z,-3.72
2022-12-17T13:23:42.236Z,-3.65
2022-12-17T13:25:44.964Z,-3.69
2022-12-17T13:27:48.676Z,-3.67
2022-12-17T13:29:51.291Z,-3.70
2022-12-17T13:32:17.258Z,-3.69
2022-12-17T13:34:37.811Z,-3.72
2022-12-17T13:36:57.942Z,-3.70
2022-12-17T13:39:06.273Z,-3.72
2022-12-17T13:41:14.626Z,-3.71
2022-12-17T13:43:20.153Z,-3.73
2022-12-17T13:45:26.077Z,-3.76
2022-12-17T13:47:31.891Z,-3.76
2022-12-17T13:49:34.494Z,-3.77
2022-12-17T13:51:37.301Z,-3.73
2022-12-17T13:53:39.836Z,-3.76
2022-12-17T13:55:51.316Z,-3.76
2022-12-17T13:57:54.408Z,-3.76
2022-12-17T14:00:02.660Z,-3.75
2022-12-17T14:02:22.933Z,-3.71
2022-12-17T14:04:28.035Z,-3.73
2022-12-17T14:06:36.922Z,-3.82
2022-12-17T14:08:40.782Z,-3.74
2022-12-17T14:11:15.167Z,-3.74
2022-12-17T14:13:18.396Z,-3.74
2022-12-17T14:15:32.285Z,-3.76
2022-12-17T14:17:41.672Z,-3.72
2022-12-17T14:19:44.497Z,-3.74
2022-12-17T14:21:47.671Z,-3.71
2022-12-17T14:23:52.196Z,-3.68
2022-12-17T14:25:55.049Z,-3.68
2022-12-17T14:28:03.792Z,-3.67
2022-12-17T14:30:22.539Z,-3.68
2022-12-17T14:32:37.596Z,-3.68
2022-12-17T14:34:43.311Z,-3.65
2022-12-17T14:36:47.035Z,-3.63
2022-12-17T14:38:57.042Z,-3.57
2022-12-17T14:41:32.805Z,-3.57
2022-12-17T14:43:35.449Z,-3.59
2022-12-17T14:45:58.085Z,-3.61
2022-12-17T14:48:04.460Z,-3.64
2022-12-17T14:50:23.947Z,-3.57
2022-12-17T14:52:57.519Z,-3.55
2022-12-17T14:55:00.561Z,-3.58
2022-12-17T14:57:06.209Z,-3.63
2022-12-17T14:59:38.205Z,-3.59
2022-12-17T15:01:40.898Z,-3.58
2022-12-17T15:03:48.766Z,-3.57
2022-12-17T15:06:07.372Z,-3.61
2022-12-17T15:08:11.731Z,-3.57
2022-12-17T15:10:19.132Z,-3.57
2022-12-17T15:12:23.586Z,-3.55
2022-12-17T15:14:26.192Z,-3.62
2022-12-17T15:16:29.283Z,-3.57
2022-12-17T15:18:32.995Z,-3.57
2022-12-17T15:20:36.347Z,-3.57
2022-12-17T15:22:39.281Z,-3.57
2022-12-17T15:24:42.237Z,-3.60
2022-12-17T15:26:45.096Z,-3.57
2022-12-17T15:28:47.856Z,-3.59
2022-12-17T15:30:50.688Z,-3.61
2022-12-17T15:32:53.370Z,-3.56
2022-12-17T15:34:57.093Z,-3.58
2022-12-17T15:36:59.764Z,-3.60
2022-12-17T15:39:02.452Z,-3.63
2022-12-17T15:41:26.510Z,-3.61
2022-12-17T15:43:30.414Z,-3.59
2022-12-17T15:45:33.410Z,-3.52
2022-12-17T15:47:36.449Z,-3.51
2022-12-17T15:49:39.150Z,-3.49
2022-12-17T15:51:41.715Z,-3.49
2022-12-17T15:53:44.289Z,-3.51
2022-12-17T15:55:46.891Z,-3.50
2022-12-17T15:57:49.430Z,-3.53
2022-12-17T15:59:52.211Z,-3.56
2022-12-17T16:01:54.839Z,-3.56
2022-12-17T16:03:58.044Z,-3.58
2022-12-17T16:06:01.895Z,-3.61
2022-12-17T16:08:04.695Z,-3.58
2022-12-17T16:10:07.537Z,-3.62
2022-12-17T16:12:10.402Z,-3.59
2022-12-17T16:14:13.070Z,-3.61
2022-12-17T16:16:15.876Z,-3.62
2022-12-17T16:18:18.512Z,-3.62
2022-12-17T16:20:21.093Z,-3.61
2022-12-17T16:22:23.890Z,-3.61
2022-12-17T16:24:26.945Z,-3.59
2022-12-17T16:26:29.527Z,-3.61
2022-12-17T16:28:32.962Z,-3.60
2022-12-17T16:30:35.576Z,-3.58
2022-12-17T16:32:38.744Z,-3.58
2022-12-17T16:34:44.134Z,-3.59
2022-12-17T16:36:46.757Z,-3.59
2022-12-17T16:38:52.900Z,-3.59
2022-12-17T16:41:00.092Z,-3.61
2022-12-17T16:43:02.723Z,-3.63
2022-12-17T16:45:06.160Z,-3.65
2022-12-17T16:47:10.462Z,-3.61
2022-12-17T16:49:18.556Z,-3.57
2022-12-17T16:51:28.547Z,-3.58
2022-12-17T16:53:32.034Z,-3.54
2022-12-17T16:55:41.001Z,-3.57
2022-12-17T16:57:43.538Z,-3.58
2022-12-17T16:59:46.168Z,-3.60
2022-12-17T17:01:50.689Z,-3.59
2022-12-17T17:03:53.713Z,-3.58
2022-12-17T17:06:01.118Z,-3.61
2022-12-17T17:08:04.713Z,-3.62
2022-12-17T17:10:07.512Z,-3.58
2022-12-17T17:12:12.043Z,-3.60
2022-12-17T17:14:14.757Z,-3.60
2022-12-17T17:16:19.446Z,-3.62
2022-12-17T17:18:24.749Z,-3.61
2022-12-17T17:20:27.724Z,-3.60
2022-12-17T17:22:30.250Z,-3.59
2022-12-17T17:24:32.812Z,-3.57
2022-12-17T17:26:35.973Z,-3.57
2022-12-17T17:28:39.116Z,-3.56
2022-12-17T17:30:42.264Z,-3.56
2022-12-17T17:32:44.970Z,-3.57
2022-12-17T17:34:47.622Z,-3.55
2022-12-17T17:36:50.173Z,-3.55
2022-12-17T17:38:57.182Z,-3.56
2022-12-17T17:40:59.762Z,-3.57
2022-12-17T17:43:02.339Z,-3.58
2022-12-17T17:45:05.167Z,-3.62
2022-12-17T17:47:08.026Z,-3.54
2022-12-17T17:49:12.000Z,-3.53
2022-12-17T17:51:39.032Z,-3.57
2022-12-17T17:53:48.055Z,-3.58
2022-12-17T17:55:50.532Z,-3.54
2022-12-17T17:57:53.228Z,-3.54
2022-12-17T17:59:55.864Z,-3.52
2022-12-17T18:01:58.513Z,-3.52
2022-12-17T18:04:06.010Z,-3.51
2022-12-17T18:06:11.625Z,-3.55
2022-12-17T18:08:15.405Z,-3.52
2022-12-17T18:10:18.065Z,-3.53
2022-12-17T18:12:39.351Z,-3.53
2022-12-17T18:14:46.670Z,-3.54
2022-12-17T18:17:00.558Z,-3.50
2022-12-17T18:19:20.501Z,-3.50
2022-12-17T18:21:24.191Z,-3.52
2022-12-17T18:23:26.867Z,-3.50
2022-12-17T18:25:32.886Z,-3.47
2022-12-17T18:27:40.303Z,-3.50
2022-12-17T18:29:42.940Z,-3.46
2022-12-17T18:31:51.536Z,-3.44
2022-12-17T18:33:58.903Z,-3.45
2022-12-17T18:36:01.461Z,-3.46
2022-12-17T18:38:04.146Z,-3.44
2022-12-17T18:40:07.829Z,-3.46
2022-12-17T18:42:28.789Z,-3.42
2022-12-17T18:44:32.455Z,-3.44
2022-12-17T18:46:35.822Z,-3.43
2022-12-17T18:48:38.863Z,-3.40
2022-12-17T18:50:41.787Z,-3.37
2022-12-17T18:52:44.350Z,-3.37
2022-12-17T18:54:46.871Z,-3.34
2022-12-17T18:57:01.018Z,-3.34
2022-12-17T18:59:04.983Z,-3.34
2022-12-17T19:01:08.274Z,-3.35
2022-12-17T19:03:11.241Z,-3.37
2022-12-17T19:05:14.000Z,-3.29
2022-12-17T19:07:16.552Z,-3.26
2022-12-17T19:09:25.188Z,-3.28
2022-12-17T19:11:28.397Z,-3.28
2022-12-17T19:13:31.389Z,-3.26
2022-12-17T19:15:36.069Z,-3.29
2022-12-17T19:17:38.890Z,-3.24
2022-12-17T19:19:41.422Z,-3.25
2022-12-17T19:21:44.817Z,-3.22
2022-12-17T19:23:48.587Z,-3.19
2022-12-17T19:25:51.167Z,-3.16
2022-12-17T19:27:53.913Z,-3.13
2022-12-17T19:29:57.288Z,-3.10
2022-12-17T19:32:00.610Z,-3.12
2022-12-17T19:34:05.728Z,-3.09
2022-12-17T19:36:14.181Z,-3.11
2022-12-17T19:38:16.784Z,-3.12
2022-12-17T19:40:19.420Z,-3.11
2022-12-17T19:42:25.161Z,-3.11
2022-12-17T19:44:27.934Z,-3.10
2022-12-17T19:46:32.209Z,-3.11
2022-12-17T19:48:37.215Z,-3.09
2022-12-17T19:50:40.204Z,-3.09
2022-12-17T19:52:42.764Z,-3.14
2022-12-17T19:54:45.317Z,-3.14
2022-12-17T19:56:47.924Z,-3.13
2022-12-17T19:58:53.224Z,-3.10
2022-12-17T20:00:55.841Z,-3.08
2022-12-17T20:02:58.706Z,-3.09
2022-12-17T20:05:01.337Z,-3.08
2022-12-17T20:07:04.097Z,-3.04
2022-12-17T20:09:07.451Z,-3.04
2022-12-17T20:11:30.689Z,-3.04
2022-12-17T20:13:33.217Z,-3.05
2022-12-17T20:15:35.888Z,-3.04
2022-12-17T20:17:38.487Z,-3.03
2022-12-17T20:19:42.280Z,-3.02
2022-12-17T20:21:44.869Z,-3.00
2022-12-17T20:23:48.722Z,-2.99
2022-12-17T20:26:01.934Z,-2.97
2022-12-17T20:28:04.917Z,-3.00
2022-12-17T20:30:08.092Z,-3.00
2022-12-17T20:32:10.778Z,-3.00
2022-12-17T20:34:15.982Z,-3.01
2022-12-17T20:36:20.037Z,-2.98
2022-12-17T20:38:23.024Z,-2.99
2022-12-17T20:40:25.649Z,-3.02
2022-12-17T20:42:28.197Z,-3.04
2022-12-17T20:44:30.847Z,-2.98
2022-12-17T20:46:34.224Z,-2.97
2022-12-17T20:48:39.157Z,-2.93
2022-12-17T20:50:42.007Z,-2.95
2022-12-17T20:52:44.588Z,-2.94
2022-12-17T20:54:47.169Z,-2.93
2022-12-17T20:56:50.115Z,-2.93
2022-12-17T20:58:54.979Z,-2.93
2022-12-17T21:01:07.690Z,-2.88
2022-12-17T21:03:10.742Z,-2.88
2022-12-17T21:05:13.579Z,-2.88
2022-12-17T21:07:16.170Z,-2.83
2022-12-17T21:09:20.501Z,-2.84
2022-12-17T21:11:26.076Z,-2.83
2022-12-17T21:13:31.755Z,-2.84
2022-12-17T21:15:34.346Z,-2.85
2022-12-17T21:17:36.867Z,-2.81
2022-12-17T21:19:39.382Z,-2.83
2022-12-17T21:21:42.248Z,-2.87
2022-12-17T21:23:45.588Z,-2.85
2022-12-17T21:25:48.361Z,-2.79
2022-12-17T21:27:51.074Z,-2.84
2022-12-17T21:29:53.993Z,-2.82
2022-12-17T21:31:56.652Z,-2.82
2022-12-17T21:34:03.160Z,-2.82
2022-12-17T21:36:07.899Z,-2.81
2022-12-17T21:38:10.943Z,-2.83
2022-12-17T21:40:13.737Z,-2.86
2022-12-17T21:42:35.002Z,-2.86
2022-12-17T21:44:37.718Z,-2.90
2022-12-17T21:46:40.892Z,-2.91
2022-12-17T21:48:44.077Z,-2.88
2022-12-17T21:50:47.087Z,-2.87
2022-12-17T21:52:50.211Z,-2.87
2022-12-17T21:54:52.864Z,-2.89
2022-12-17T21:56:55.445Z,-2.86
2022-12-17T21:59:00.356Z,-2.89
2022-12-17T22:01:19.109Z,-2.91
2022-12-17T22:03:22.265Z,-2.90
2022-12-17T22:05:24.886Z,-2.86
2022-12-17T22:07:32.028Z,-2.87
2022-12-17T22:09:42.502Z,-2.87
2022-12-17T22:12:20.205Z,-2.85
2022-12-17T22:14:22.858Z,-2.82
2022-12-17T22:16:27.354Z,-2.80
2022-12-17T22:18:29.931Z,-2.79
2022-12-17T22:20:32.525Z,-2.81
2022-12-17T22:22:35.215Z,-2.82
2022-12-17T22:24:38.047Z,-2.83
2022-12-17T22:26:40.795Z,-2.84
2022-12-17T22:28:48.580Z,-2.83
2022-12-17T22:31:09.897Z,-2.75
2022-12-17T22:33:38.308Z,-2.85
2022-12-17T22:37:34.843Z,-2.89
2022-12-17T22:40:50.083Z,-2.89
2022-12-17T22:44:35.586Z,-2.89
2022-12-17T22:44:37.804Z,-2.85
2022-12-17T22:45:27.605Z,-2.88
2022-12-17T22:47:30.228Z,-2.89
2022-12-17T22:49:32.854Z,-2.77
2022-12-17T22:51:39.032Z,-2.84
2022-12-17T22:53:43.403Z,-2.83
2022-12-17T22:55:46.221Z,-2.91
2022-12-17T22:57:48.880Z,-2.85
2022-12-17T22:59:51.513Z,-2.84
2022-12-17T23:01:54.321Z,-2.85
2022-12-17T23:03:58.829Z,-2.83
2022-12-17T23:06:13.629Z,-2.85
2022-12-17T23:08:16.254Z,-2.84
2022-12-17T23:10:20.091Z,-2.87
2022-12-17T23:12:41.240Z,-2.86
2022-12-17T23:14:43.925Z,-2.84
2022-12-17T23:16:46.580Z,-2.81
2022-12-17T23:18:50.897Z,-2.77
2022-12-17T23:20:53.587Z,-2.85
2022-12-17T23:22:57.011Z,-2.80
2022-12-17T23:24:59.626Z,-2.79
2022-12-17T23:27:02.195Z,-2.80
2022-12-17T23:29:08.061Z,-2.79
2022-12-17T23:31:13.213Z,-2.81
2022-12-17T23:33:15.914Z,-2.81
2022-12-17T23:35:18.755Z,-2.82
2022-12-17T23:37:21.281Z,-2.78
2022-12-17T23:39:24.021Z,-2.79
2022-12-17T23:41:29.304Z,-2.79
2022-12-17T23:43:33.072Z,-2.83
2022-12-17T23:45:35.594Z,-2.79
2022-12-17T23:47:39.095Z,-2.80
2022-12-17T23:49:41.651Z,-2.79
2022-12-17T23:51:44.233Z,-2.75
2022-12-17T23:53:47.625Z,-2.78
2022-12-17T23:55:51.143Z,-2.75
2022-12-17T23:57:56.766Z,-2.78
2022-12-17T23:59:59.385Z,-2.74
